createdAt,value
2023-01-09T00:01:29.220Z,145203.78
2023-01-09T00:03:56.071Z,145188.03
2023-01-09T00:06:22.950Z,145196.50
2023-01-09T00:08:49.797Z,145220.78
2023-01-09T00:11:16.630Z,145208.66
2023-01-09T00:13:43.618Z,145211.09
2023-01-09T00:16:10.947Z,145214.69
2023-01-09T00:18:37.811Z,145262.09
2023-01-09T00:21:05.789Z,145223.19
2023-01-09T00:23:33.030Z,145224.44
2023-01-09T00:26:10.536Z,145228.06
2023-01-09T00:28:37.666Z,145217.16
2023-01-09T00:31:05.358Z,145203.78
2023-01-09T00:33:36.615Z,145167.41
2023-01-09T00:36:03.502Z,145140.69
2023-01-09T00:38:30.403Z,145114.00
2023-01-09T00:40:58.249Z,145075.22
2023-01-09T00:43:28.110Z,145101.91
2023-01-09T00:45:55.123Z,145078.88
2023-01-09T00:48:26.843Z,145058.22
2023-01-09T00:50:55.341Z,145082.47
2023-01-09T00:53:23.340Z,145060.66
2023-01-09T00:55:51.475Z,145042.47
2023-01-09T00:58:18.711Z,145038.81
2023-01-09T01:00:45.519Z,145107.97
2023-01-09T01:03:12.441Z,145109.16
2023-01-09T01:05:58.208Z,145101.91
2023-01-09T01:08:25.063Z,145082.47
2023-01-09T01:10:52.030Z,145070.38
2023-01-09T01:13:18.874Z,145067.91
2023-01-09T01:15:46.275Z,145041.22
2023-01-09T01:18:13.613Z,145057.03
2023-01-09T01:20:40.952Z,145072.75
2023-01-09T01:23:08.010Z,145044.88
2023-01-09T01:25:41.831Z,145077.63
2023-01-09T01:28:09.363Z,145070.38
2023-01-09T01:30:40.323Z,145004.84
2023-01-09T01:33:07.289Z,145018.19
2023-01-09T01:35:34.194Z,145009.69
2023-01-09T01:38:01.235Z,145019.44
2023-01-09T01:40:28.641Z,145019.44
2023-01-09T01:42:55.799Z,144991.50
2023-01-09T01:45:24.179Z,144989.09
2023-01-09T01:47:58.141Z,145004.84
2023-01-09T01:50:36.977Z,145038.81
2023-01-09T01:53:06.653Z,144997.59
2023-01-09T01:55:34.858Z,145000.00
2023-01-09T01:58:04.077Z,144990.31
2023-01-09T02:00:32.374Z,144997.59
2023-01-09T02:03:00.923Z,145021.84
2023-01-09T02:05:28.215Z,144992.75
2023-01-09T02:07:55.124Z,145002.44
2023-01-09T02:10:23.541Z,144996.34
2023-01-09T02:12:50.712Z,144995.16
2023-01-09T02:15:18.525Z,144973.31
2023-01-09T02:18:24.071Z,144991.50
2023-01-09T02:21:08.151Z,144974.56
2023-01-09T02:23:53.724Z,144983.06
2023-01-09T02:26:23.886Z,144983.06
2023-01-09T02:29:09.546Z,145017.00
2023-01-09T02:31:48.375Z,144986.66
2023-01-09T02:34:24.387Z,145019.44
2023-01-09T02:36:53.992Z,145004.84
2023-01-09T02:39:31.711Z,144985.47
2023-01-09T02:42:04.086Z,145000.00
2023-01-09T02:44:32.668Z,144979.41
2023-01-09T02:47:05.339Z,145000.00
2023-01-09T02:49:36.748Z,144991.50
2023-01-09T02:52:12.817Z,144961.22
2023-01-09T02:55:03.697Z,144986.66
2023-01-09T02:57:41.140Z,144963.63
2023-01-09T03:00:28.207Z,144995.16
2023-01-09T03:03:08.756Z,144987.91
2023-01-09T03:05:50.775Z,145019.44
2023-01-09T03:08:22.842Z,145000.00
2023-01-09T03:10:55.332Z,144995.16
2023-01-09T03:13:23.973Z,144936.94
2023-01-09T03:15:52.237Z,144926.03
2023-01-09T03:18:21.538Z,144917.56
2023-01-09T03:20:48.840Z,144973.31
2023-01-09T03:23:15.792Z,144953.94
2023-01-09T03:25:42.651Z,144936.94
2023-01-09T03:28:17.880Z,144966.06
2023-01-09T03:30:44.697Z,144978.16
2023-01-09T03:33:11.546Z,144935.75
2023-01-09T03:35:38.352Z,144922.41
2023-01-09T03:38:07.250Z,144932.09
2023-01-09T03:40:34.705Z,144929.69
2023-01-09T03:43:01.683Z,144946.69
2023-01-09T03:45:28.509Z,144939.38
2023-01-09T03:47:58.384Z,144910.31
2023-01-09T03:50:25.256Z,144895.72
2023-01-09T03:52:52.299Z,144920.00
2023-01-09T03:55:19.122Z,144888.47
2023-01-09T03:57:45.977Z,144917.56
2023-01-09T04:00:12.982Z,144915.16
2023-01-09T04:02:39.892Z,144930.91
2023-01-09T04:05:07.223Z,144929.69
2023-01-09T04:07:34.312Z,144927.25
2023-01-09T04:10:01.120Z,144944.22
2023-01-09T04:12:27.952Z,144924.84
2023-01-09T04:14:54.864Z,144932.09
2023-01-09T04:17:21.675Z,144970.91
2023-01-09T04:19:48.595Z,144983.06
2023-01-09T04:22:15.448Z,144979.41
2023-01-09T04:24:42.238Z,144951.53
2023-01-09T04:27:09.175Z,144926.03
2023-01-09T04:29:35.974Z,144912.72
2023-01-09T04:32:02.827Z,144905.41
2023-01-09T04:34:29.627Z,144910.31
2023-01-09T04:36:56.485Z,144910.31
2023-01-09T04:39:23.435Z,144910.31
2023-01-09T04:41:50.317Z,144910.31
2023-01-09T04:44:21.214Z,144952.72
2023-01-09T04:46:48.421Z,144917.56
2023-01-09T04:49:15.357Z,144911.50
2023-01-09T04:51:42.250Z,144881.19
2023-01-09T04:54:09.060Z,144865.44
2023-01-09T04:56:36.352Z,144849.66
2023-01-09T04:59:04.182Z,144830.28
2023-01-09T05:01:31.317Z,144766.06
2023-01-09T05:03:58.437Z,144776.94
2023-01-09T05:06:25.331Z,144736.97
2023-01-09T05:08:52.213Z,144722.44
2023-01-09T05:11:19.456Z,144701.84
2023-01-09T05:13:46.284Z,144710.34
2023-01-09T05:16:13.222Z,144663.03
2023-01-09T05:18:40.066Z,144650.91
2023-01-09T05:21:06.885Z,144670.34
2023-01-09T05:23:33.747Z,144689.72
2023-01-09T05:26:00.607Z,144683.69
2023-01-09T05:28:27.415Z,144655.78
2023-01-09T05:30:54.223Z,144623.03
2023-01-09T05:33:21.155Z,144625.47
2023-01-09T05:35:48.011Z,144594.00
2023-01-09T05:38:14.818Z,144578.22
2023-01-09T05:40:41.655Z,144564.94
2023-01-09T05:43:08.504Z,144549.19
2023-01-09T05:45:35.623Z,144549.19
2023-01-09T05:48:03.794Z,144541.88
2023-01-09T05:50:30.587Z,144543.13
2023-01-09T05:52:57.461Z,144527.38
2023-01-09T05:55:24.275Z,144521.34
2023-01-09T05:57:51.136Z,144521.34
2023-01-09T06:00:18.331Z,144544.34
2023-01-09T06:02:45.287Z,144547.97
2023-01-09T06:05:12.165Z,144604.88
2023-01-09T06:07:40.589Z,144612.16
2023-01-09T06:10:08.345Z,144655.78
2023-01-09T06:12:35.168Z,144697.00
2023-01-09T06:15:02.048Z,144704.25
2023-01-09T06:17:28.881Z,144682.44
2023-01-09T06:19:55.674Z,144733.34
2023-01-09T06:22:22.479Z,144723.63
2023-01-09T06:24:49.284Z,144718.78
2023-01-09T06:27:16.218Z,144750.28
2023-01-09T06:29:43.053Z,144769.72
2023-01-09T06:32:09.878Z,144776.94
2023-01-09T06:34:36.735Z,144740.59
2023-01-09T06:37:03.578Z,144791.47
2023-01-09T06:39:30.421Z,144796.31
2023-01-09T06:41:57.251Z,144784.25
2023-01-09T06:44:24.047Z,144803.63
2023-01-09T06:46:50.899Z,144789.09
2023-01-09T06:49:23.247Z,144814.50
2023-01-09T06:51:52.797Z,144815.75
2023-01-09T06:54:19.718Z,144812.09
2023-01-09T06:56:46.894Z,144793.94
2023-01-09T06:59:13.789Z,144823.00
2023-01-09T07:01:40.768Z,144806.06
2023-01-09T07:04:09.790Z,144789.09
2023-01-09T07:06:36.921Z,144768.47
2023-01-09T07:09:05.823Z,144769.72
2023-01-09T07:11:32.857Z,144762.41
2023-01-09T07:13:59.736Z,144752.72
2023-01-09T07:16:26.589Z,144792.72
2023-01-09T07:18:54.698Z,144775.75
2023-01-09T07:21:21.632Z,144758.78
2023-01-09T07:23:48.478Z,144756.38
2023-01-09T07:26:15.379Z,144769.72
2023-01-09T07:28:42.188Z,144738.19
2023-01-09T07:31:09.048Z,144779.41
2023-01-09T07:33:35.944Z,144808.47
2023-01-09T07:36:02.776Z,144793.94
2023-01-09T07:38:29.767Z,144801.22
2023-01-09T07:40:56.617Z,144816.97
2023-01-09T07:43:23.475Z,144796.31
2023-01-09T07:45:50.267Z,144781.78
2023-01-09T07:48:17.110Z,144789.09
2023-01-09T07:50:43.932Z,144789.09
2023-01-09T07:53:10.735Z,144781.78
2023-01-09T07:55:37.590Z,144791.47
2023-01-09T07:58:04.403Z,144796.31
2023-01-09T08:00:33.072Z,144848.47
2023-01-09T08:03:00.117Z,144831.50
2023-01-09T08:05:26.992Z,144866.66
2023-01-09T08:07:53.844Z,144809.66
2023-01-09T08:10:20.705Z,144852.13
2023-01-09T08:12:47.897Z,144833.94
2023-01-09T08:15:15.205Z,144831.50
2023-01-09T08:17:42.810Z,144848.47
2023-01-09T08:20:11.644Z,144839.97
2023-01-09T08:22:39.081Z,144889.69
2023-01-09T08:25:06.102Z,144890.88
2023-01-09T08:27:33.076Z,144865.44
2023-01-09T08:29:59.880Z,144864.22
2023-01-09T08:32:26.786Z,144900.56
2023-01-09T08:34:53.732Z,144898.16
2023-01-09T08:37:20.666Z,144886.03
2023-01-09T08:39:49.237Z,144881.19
2023-01-09T08:42:34.601Z,144956.38
2023-01-09T08:45:20.299Z,144932.09
2023-01-09T08:47:47.254Z,144916.34
2023-01-09T08:50:14.277Z,144941.78
2023-01-09T08:52:41.133Z,144898.16
2023-01-09T08:55:08.216Z,144903.00
2023-01-09T08:57:35.073Z,144929.69
2023-01-09T09:00:02.174Z,144970.91
2023-01-09T09:02:29.017Z,144963.63
2023-01-09T09:04:56.286Z,144966.06
2023-01-09T09:07:26.632Z,144944.22
2023-01-09T09:09:53.780Z,144980.59
2023-01-09T09:12:20.888Z,144967.28
2023-01-09T09:15:06.459Z,144980.59
2023-01-09T09:17:33.474Z,144980.59
2023-01-09T09:20:00.524Z,144987.91
2023-01-09T09:22:27.378Z,145020.63
2023-01-09T09:24:54.316Z,145000.00
2023-01-09T09:27:21.146Z,145024.28
2023-01-09T09:29:47.982Z,145009.69
2023-01-09T09:32:14.877Z,145014.53
2023-01-09T09:34:41.705Z,144987.91
2023-01-09T09:37:08.665Z,145014.53
2023-01-09T09:39:35.544Z,145018.19
2023-01-09T09:42:29.678Z,145064.28
2023-01-09T09:45:03.206Z,145046.06
2023-01-09T09:47:38.165Z,145043.69
2023-01-09T09:50:23.842Z,145026.69
2023-01-09T09:52:53.394Z,145044.88
2023-01-09T09:55:20.188Z,145019.44
2023-01-09T09:57:47.763Z,145033.97
2023-01-09T10:00:16.246Z,145009.69
2023-01-09T10:02:47.455Z,145048.53
2023-01-09T10:05:17.059Z,145055.81
2023-01-09T10:07:47.398Z,145050.94
2023-01-09T10:10:20.502Z,145007.28
2023-01-09T10:12:55.703Z,145018.19
2023-01-09T10:15:30.753Z,145041.22
2023-01-09T10:18:17.826Z,145035.19
2023-01-09T10:20:47.430Z,145072.75
2023-01-09T10:23:20.501Z,145058.22
2023-01-09T10:25:59.867Z,145046.06
2023-01-09T10:28:42.844Z,145092.22
2023-01-09T10:31:17.341Z,145106.75
2023-01-09T10:34:02.720Z,145099.47
2023-01-09T10:36:36.846Z,145104.31
2023-01-09T10:39:08.322Z,145095.81
2023-01-09T10:41:42.321Z,145101.91
2023-01-09T10:44:16.949Z,145116.44
2023-01-09T10:46:49.126Z,145116.44
2023-01-09T10:49:17.327Z,145128.59
2023-01-09T10:52:02.370Z,145123.69
2023-01-09T10:54:29.695Z,145127.34
2023-01-09T10:56:56.588Z,145115.25
2023-01-09T10:59:24.325Z,145093.41
2023-01-09T11:01:51.387Z,145128.59
2023-01-09T11:04:24.134Z,145123.69
2023-01-09T11:06:54.811Z,145109.16
2023-01-09T11:09:21.616Z,145140.69
2023-01-09T11:11:48.490Z,145161.34
2023-01-09T11:14:17.559Z,145160.09
2023-01-09T11:16:51.620Z,145163.75
2023-01-09T11:19:18.793Z,145151.66
2023-01-09T11:21:45.611Z,145186.78
2023-01-09T11:24:18.467Z,145184.41
2023-01-09T11:26:46.263Z,144985.47
2023-01-09T11:29:14.571Z,145203.78
2023-01-09T11:31:43.248Z,145184.41
2023-01-09T11:34:21.823Z,145179.53
2023-01-09T11:36:49.683Z,145166.19
2023-01-09T11:39:23.326Z,145157.69
2023-01-09T11:41:57.876Z,145145.56
2023-01-09T11:44:26.081Z,145135.84
2023-01-09T11:46:53.395Z,145203.78
2023-01-09T11:49:20.929Z,145186.78
2023-01-09T11:52:04.290Z,145169.84
2023-01-09T11:54:34.241Z,145232.91
2023-01-09T11:57:01.188Z,145242.66
2023-01-09T11:59:29.169Z,145257.25
2023-01-09T12:02:15.057Z,145103.09
2023-01-09T12:04:48.150Z,145162.53
2023-01-09T12:07:23.228Z,145150.41
2023-01-09T12:09:52.812Z,145094.59
2023-01-09T12:12:22.438Z,145151.66
2023-01-09T12:14:55.547Z,145172.25
2023-01-09T12:17:22.349Z,145174.69
2023-01-09T12:20:08.046Z,145150.41
2023-01-09T12:22:34.831Z,145133.44
2023-01-09T12:25:18.695Z,145101.91
2023-01-09T12:27:54.542Z,145124.94
2023-01-09T12:30:34.701Z,145109.16
2023-01-09T12:33:01.651Z,145128.59
2023-01-09T12:35:33.533Z,145148.00
2023-01-09T12:38:14.678Z,145177.09
2023-01-09T12:40:44.606Z,145115.25
2023-01-09T12:43:24.675Z,145107.97
2023-01-09T12:46:21.022Z,145124.94
2023-01-09T12:49:15.073Z,145116.44
2023-01-09T12:51:57.231Z,145093.41
2023-01-09T12:54:39.056Z,145081.25
2023-01-09T12:57:11.273Z,145053.38
2023-01-09T12:59:40.869Z,145048.53
2023-01-09T13:02:22.560Z,145009.69
2023-01-09T13:04:56.446Z,145029.13
2023-01-09T13:07:27.364Z,145018.19
2023-01-09T13:09:58.419Z,145031.53
2023-01-09T13:12:26.790Z,145037.63
2023-01-09T13:15:00.695Z,144985.47
2023-01-09T13:17:35.945Z,144939.38
2023-01-09T13:20:02.785Z,144978.16
2023-01-09T13:22:29.673Z,145002.44
2023-01-09T13:25:11.683Z,145002.44
2023-01-09T13:27:40.768Z,145046.06
2023-01-09T13:30:19.989Z,145002.44
2023-01-09T13:32:49.696Z,145029.13
2023-01-09T13:35:16.526Z,145064.28
2023-01-09T13:37:49.584Z,145052.16
2023-01-09T13:40:19.582Z,145031.53
2023-01-09T13:43:01.007Z,144989.09
2023-01-09T13:45:28.964Z,145012.13
2023-01-09T13:48:08.173Z,144966.06
2023-01-09T13:50:35.652Z,144967.28
2023-01-09T13:53:17.537Z,144980.59
2023-01-09T13:55:59.717Z,144939.38
2023-01-09T13:58:27.690Z,144978.16
2023-01-09T14:00:55.919Z,144967.28
2023-01-09T14:03:28.281Z,145024.28
2023-01-09T14:05:55.113Z,145036.38
2023-01-09T14:08:23.902Z,144985.47
2023-01-09T14:10:52.914Z,145017.00
2023-01-09T14:13:33.858Z,145003.66
2023-01-09T14:16:20.193Z,145026.69
2023-01-09T14:19:02.304Z,145021.84
2023-01-09T14:21:43.542Z,144992.75
2023-01-09T14:24:15.052Z,144986.66
2023-01-09T14:26:41.878Z,144964.88
2023-01-09T14:29:27.285Z,144979.41
2023-01-09T14:32:14.174Z,145001.25
2023-01-09T14:34:42.287Z,144980.59
2023-01-09T14:37:12.300Z,144936.94
2023-01-09T14:39:43.014Z,144945.44
2023-01-09T14:42:15.774Z,145017.00
2023-01-09T14:44:42.626Z,144979.41
2023-01-09T14:47:17.210Z,145001.25
2023-01-09T14:49:45.622Z,145004.84
2023-01-09T14:52:21.148Z,145007.28
2023-01-09T14:54:49.167Z,144973.31
2023-01-09T14:57:26.170Z,144934.53
2023-01-09T14:59:56.734Z,144978.16
2023-01-09T15:02:24.235Z,144975.75
2023-01-09T15:04:51.193Z,144961.22
2023-01-09T15:07:23.024Z,144963.63
2023-01-09T15:09:50.462Z,144980.59
2023-01-09T15:12:20.498Z,144968.47
2023-01-09T15:14:50.479Z,144985.47
2023-01-09T15:17:18.494Z,144949.09
2023-01-09T15:19:46.744Z,144944.22
2023-01-09T15:22:30.194Z,144940.59
2023-01-09T15:24:57.336Z,144938.19
2023-01-09T15:27:24.790Z,144895.72
2023-01-09T15:29:52.062Z,144920.00
2023-01-09T15:32:23.603Z,144893.31
2023-01-09T15:34:50.991Z,144869.06
2023-01-09T15:37:24.747Z,144858.16
2023-01-09T15:39:51.895Z,144859.34
2023-01-09T15:42:48.651Z,144878.78
2023-01-09T15:45:24.226Z,144881.19
2023-01-09T15:47:51.233Z,144873.94
2023-01-09T15:50:21.307Z,144864.22
2023-01-09T15:52:48.968Z,144835.13
2023-01-09T15:55:29.981Z,144842.41
2023-01-09T15:57:57.329Z,144839.97
2023-01-09T16:00:33.313Z,144825.44
2023-01-09T16:03:10.602Z,144827.84
2023-01-09T16:05:41.414Z,144821.81
2023-01-09T16:08:29.532Z,144795.13
2023-01-09T16:10:58.268Z,144816.97
2023-01-09T16:13:26.143Z,144791.47
2023-01-09T16:15:53.737Z,144804.81
2023-01-09T16:18:22.428Z,144827.84
2023-01-09T16:20:49.810Z,144832.69
2023-01-09T16:23:35.947Z,144813.31
2023-01-09T16:26:03.887Z,144842.41
2023-01-09T16:28:30.814Z,144837.56
2023-01-09T16:31:02.869Z,144806.06
2023-01-09T16:33:30.638Z,144806.06
2023-01-09T16:36:00.430Z,144842.41
2023-01-09T16:38:27.323Z,144847.28
2023-01-09T16:41:26.229Z,144841.19
2023-01-09T16:43:53.176Z,144850.88
2023-01-09T16:46:21.149Z,144861.81
2023-01-09T16:48:48.467Z,144871.50
2023-01-09T16:51:19.583Z,144854.50
2023-01-09T16:53:46.428Z,144843.63
2023-01-09T16:56:27.571Z,144830.28
2023-01-09T16:58:54.779Z,144808.47
2023-01-09T17:01:22.684Z,144803.63
2023-01-09T17:03:50.043Z,144808.47
2023-01-09T17:06:23.228Z,144830.28
2023-01-09T17:08:51.452Z,144869.06
2023-01-09T17:11:22.579Z,144818.16
2023-01-09T17:13:49.886Z,144835.13
2023-01-09T17:16:18.133Z,144850.88
2023-01-09T17:18:45.074Z,144841.19
2023-01-09T17:21:19.478Z,144820.59
2023-01-09T17:23:46.574Z,144838.78
2023-01-09T17:26:36.481Z,144837.56
2023-01-09T17:29:03.974Z,144810.91
2023-01-09T17:31:31.200Z,144808.47
2023-01-09T17:33:58.765Z,144813.31
2023-01-09T17:36:34.382Z,144809.66
2023-01-09T17:39:01.708Z,144804.81
2023-01-09T17:41:29.291Z,144784.25
2023-01-09T17:43:57.194Z,144789.09
2023-01-09T17:46:27.290Z,144801.22
2023-01-09T17:48:54.327Z,144801.22
2023-01-09T17:51:21.364Z,144803.63
2023-01-09T17:53:48.448Z,144824.25
2023-01-09T17:56:17.264Z,144793.94
2023-01-09T17:58:45.659Z,144759.97
2023-01-09T18:01:14.459Z,144808.47
2023-01-09T18:03:41.589Z,144806.06
2023-01-09T18:06:12.258Z,144796.31
2023-01-09T18:08:39.673Z,144769.72
2023-01-09T18:11:07.320Z,144791.47
2023-01-09T18:13:34.184Z,144808.47
2023-01-09T18:16:01.085Z,144798.78
2023-01-09T18:18:28.574Z,144781.78
2023-01-09T18:20:55.468Z,144747.88
2023-01-09T18:23:22.778Z,144718.78
2023-01-09T18:25:49.599Z,144718.78
2023-01-09T18:28:16.794Z,144745.44
2023-01-09T18:30:47.777Z,144740.59
2023-01-09T18:33:15.150Z,144755.13
2023-01-09T18:35:42.317Z,144776.94
2023-01-09T18:38:09.732Z,144779.41
2023-01-09T18:40:37.101Z,144766.06
2023-01-09T18:43:05.966Z,144774.56
2023-01-09T18:45:32.948Z,144752.72
2023-01-09T18:48:00.051Z,144766.06
2023-01-09T18:50:26.863Z,144726.06
2023-01-09T18:52:54.370Z,144759.97
2023-01-09T18:55:21.887Z,144759.97
2023-01-09T18:57:48.867Z,144746.69
2023-01-09T19:00:15.858Z,144750.28
2023-01-09T19:02:42.661Z,144743.03
2023-01-09T19:05:09.639Z,144746.69
2023-01-09T19:07:39.967Z,144733.34
2023-01-09T19:10:07.063Z,144713.94
2023-01-09T19:12:33.983Z,144753.94
2023-01-09T19:15:00.909Z,144762.41
2023-01-09T19:17:27.749Z,144732.13
2023-01-09T19:19:54.666Z,144728.50
2023-01-09T19:22:21.517Z,144680.03
2023-01-09T19:24:48.921Z,144684.88
2023-01-09T19:27:15.770Z,144689.72
2023-01-09T19:29:42.694Z,144726.06
2023-01-09T19:32:09.540Z,144675.19
2023-01-09T19:34:36.413Z,144687.28
2023-01-09T19:37:03.362Z,144692.16
2023-01-09T19:39:31.422Z,144687.28
2023-01-09T19:41:58.380Z,144699.41
2023-01-09T19:44:25.253Z,144721.22
2023-01-09T19:46:52.071Z,144687.28
2023-01-09T19:49:19.096Z,144672.75
2023-01-09T19:51:45.947Z,144680.03
2023-01-09T19:54:12.795Z,144704.25
2023-01-09T19:56:40.786Z,144706.69
2023-01-09T19:59:08.158Z,144694.56
2023-01-09T20:01:36.653Z,144690.94
2023-01-09T20:04:07.555Z,144740.59
2023-01-09T20:06:34.878Z,144682.44
2023-01-09T20:09:03.443Z,144697.00
2023-01-09T20:11:30.736Z,144726.06
2023-01-09T20:13:57.658Z,144759.97
2023-01-09T20:16:29.768Z,144726.06
2023-01-09T20:19:02.492Z,144704.25
2023-01-09T20:21:29.919Z,144675.19
2023-01-09T20:23:58.885Z,144718.78
2023-01-09T20:26:26.450Z,144699.41
2023-01-09T20:28:53.962Z,144733.34
2023-01-09T20:31:21.938Z,144699.41
2023-01-09T20:33:49.576Z,144544.34
2023-01-09T20:36:16.797Z,144682.44
2023-01-09T20:38:43.851Z,144697.00
2023-01-09T20:41:22.348Z,144710.34
2023-01-09T20:43:55.468Z,144650.91
2023-01-09T20:46:23.627Z,144625.47
2023-01-09T20:48:50.586Z,144619.44
2023-01-09T20:51:17.850Z,144660.63
2023-01-09T20:53:45.615Z,144629.13
2023-01-09T20:56:12.961Z,144647.28
2023-01-09T20:58:40.918Z,144641.22
2023-01-09T21:01:08.758Z,144680.03
2023-01-09T21:03:35.665Z,144638.81
2023-01-09T21:06:09.783Z,144617.00
2023-01-09T21:08:37.275Z,144633.97
2023-01-09T21:11:04.837Z,144612.16
2023-01-09T21:13:31.792Z,144614.56
2023-01-09T21:16:02.594Z,144636.38
2023-01-09T21:18:29.609Z,144617.00
2023-01-09T21:20:56.522Z,144612.16
2023-01-09T21:23:23.453Z,144595.19
2023-01-09T21:25:50.268Z,144627.88
2023-01-09T21:28:18.588Z,144608.50
2023-01-09T21:30:49.437Z,144626.69
2023-01-09T21:33:21.392Z,144646.06
2023-01-09T21:35:55.222Z,144663.03
2023-01-09T21:38:22.870Z,144654.53
2023-01-09T21:40:50.942Z,144689.72
2023-01-09T21:43:43.496Z,144658.19
2023-01-09T21:46:32.787Z,144629.13
2023-01-09T21:48:59.848Z,144633.97
2023-01-09T21:51:26.639Z,144653.34
2023-01-09T21:53:53.484Z,144650.91
2023-01-09T21:56:21.537Z,144660.63
2023-01-09T21:58:49.264Z,144664.22
2023-01-09T22:01:16.369Z,144675.19
2023-01-09T22:03:43.410Z,144660.63
2023-01-09T22:06:10.251Z,144683.69
2023-01-09T22:08:37.127Z,144661.81
2023-01-09T22:11:04.591Z,144682.44
2023-01-09T22:13:31.412Z,144675.19
2023-01-09T22:16:05.624Z,144699.41
2023-01-09T22:18:33.228Z,144704.25
2023-01-09T22:21:00.443Z,144743.03
2023-01-09T22:23:27.256Z,144729.72
2023-01-09T22:25:54.526Z,144704.25
2023-01-09T22:28:21.984Z,144700.59
2023-01-09T22:30:48.870Z,144707.91
2023-01-09T22:33:18.836Z,144733.34
2023-01-09T22:35:45.651Z,144716.38
2023-01-09T22:38:12.560Z,144703.06
2023-01-09T22:40:39.921Z,144682.44
2023-01-09T22:43:06.804Z,144703.06
2023-01-09T22:45:33.828Z,144709.09
2023-01-09T22:48:00.623Z,144699.41
2023-01-09T22:50:27.498Z,144658.19
2023-01-09T22:52:54.299Z,144660.63
2023-01-09T22:55:21.131Z,144641.22
2023-01-09T22:57:47.945Z,144595.19
2023-01-09T23:00:15.018Z,144581.88
2023-01-09T23:02:42.052Z,144558.84
2023-01-09T23:05:09.012Z,144547.97
2023-01-09T23:07:37.255Z,144566.13
2023-01-09T23:10:05.549Z,144556.47
2023-01-09T23:12:32.766Z,144607.31
2023-01-09T23:15:00.222Z,144609.72
2023-01-09T23:17:27.094Z,144614.56
2023-01-09T23:19:53.998Z,144604.88
2023-01-09T23:22:21.054Z,144626.69
2023-01-09T23:24:47.858Z,144648.50
2023-01-09T23:27:14.677Z,144643.66
2023-01-09T23:29:41.517Z,144617.00
2023-01-09T23:32:08.456Z,144614.56
2023-01-09T23:34:35.372Z,144614.56
2023-01-09T23:37:03.936Z,144617.00
2023-01-09T23:39:30.861Z,144633.97
2023-01-09T23:42:16.094Z,144623.03
2023-01-09T23:44:42.907Z,144621.84
2023-01-09T23:47:09.702Z,144682.44
2023-01-09T23:49:36.656Z,144686.09
2023-01-09T23:52:05.925Z,144664.22
2023-01-09T23:54:32.758Z,144666.66
2023-01-09T23:56:59.564Z,144670.34
2023-01-09T23:59:26.375Z,144658.19
